sensor_id;sensor_type;location;lat;lon;timestamp;pressure;altitude;pressure_sealevel;temperature;humidity
51999;BME280;73339;50.924;11.598;2024-02-28T00:02:03;99655.60;;;19.88;32.59
51999;BME280;73339;50.924;11.598;2024-02-28T00:04:34;99656.04;;;19.83;32.69
51999;BME280;73339;50.924;11.598;2024-02-28T00:07:04;99656.75;;;19.87;32.61
51999;BME280;73339;50.924;11.598;2024-02-28T00:09:34;99661.48;;;19.84;32.67
51999;BME280;73339;50.924;11.598;2024-02-28T00:12:05;99661.12;;;19.87;32.62
51999;BME280;73339;50.924;11.598;2024-02-28T00:14:36;99659.20;;;19.86;32.61
51999;BME280;73339;50.924;11.598;2024-02-28T00:17:06;99661.01;;;19.81;32.70
51999;BME280;73339;50.924;11.598;2024-02-28T00:19:36;99663.58;;;19.88;32.61
51999;BME280;73339;50.924;11.598;2024-02-28T00:22:07;99670.12;;;19.78;32.78
51999;BME280;73339;50.924;11.598;2024-02-28T00:24:37;99671.93;;;19.83;32.66
51999;BME280;73339;50.924;11.598;2024-02-28T00:27:07;99671.27;;;19.83;32.69
51999;BME280;73339;50.924;11.598;2024-02-28T00:29:38;99675.32;;;19.85;32.62
51999;BME280;73339;50.924;11.598;2024-02-28T00:32:08;99673.21;;;19.83;32.67
51999;BME280;73339;50.924;11.598;2024-02-28T00:34:39;99675.67;;;19.77;32.79
51999;BME280;73339;50.924;11.598;2024-02-28T00:37:09;99678.56;;;19.83;32.65
51999;BME280;73339;50.924;11.598;2024-02-28T00:39:40;99680.24;;;19.87;32.60
51999;BME280;73339;50.924;11.598;2024-02-28T00:42:10;99682.18;;;19.85;32.61
51999;BME280;73339;50.924;11.598;2024-02-28T00:44:41;99680.40;;;20.00;32.35
51999;BME280;73339;50.924;11.598;2024-02-28T00:47:11;99678.60;;;20.01;32.33
51999;BME280;73339;50.924;11.598;2024-02-28T00:49:41;99682.44;;;19.92;32.45
51999;BME280;73339;50.924;11.598;2024-02-28T00:52:12;99680.56;;;19.92;32.46
51999;BME280;73339;50.924;11.598;2024-02-28T00:54:42;99675.61;;;20.00;32.32
51999;BME280;73339;50.924;11.598;2024-02-28T00:57:13;99675.04;;;19.98;32.34
51999;BME280;73339;50.924;11.598;2024-02-28T00:59:43;99675.32;;;19.99;32.35
51999;BME280;73339;50.924;11.598;2024-02-28T01:02:14;99678.85;;;19.98;32.34
51999;BME280;73339;50.924;11.598;2024-02-28T01:04:44;99684.11;;;19.98;32.37
51999;BME280;73339;50.924;11.598;2024-02-28T01:07:15;99682.81;;;19.83;32.63
51999;BME280;73339;50.924;11.598;2024-02-28T01:09:45;99675.07;;;19.97;32.37
51999;BME280;73339;50.924;11.598;2024-02-28T01:12:16;99679.59;;;19.86;32.55
51999;BME280;73339;50.924;11.598;2024-02-28T01:14:47;99683.40;;;19.87;32.55
51999;BME280;73339;50.924;11.598;2024-02-28T01:17:17;99683.07;;;20.03;32.27
51999;BME280;73339;50.924;11.598;2024-02-28T01:19:47;99684.55;;;20.00;32.29
51999;BME280;73339;50.924;11.598;2024-02-28T01:22:18;99686.01;;;19.99;32.32
51999;BME280;73339;50.924;11.598;2024-02-28T01:24:48;99687.45;;;19.97;32.36
51999;BME280;73339;50.924;11.598;2024-02-28T01:27:19;99685.85;;;19.93;32.43
51999;BME280;73339;50.924;11.598;2024-02-28T01:29:49;99682.77;;;19.96;32.38
51999;BME280;73339;50.924;11.598;2024-02-28T01:32:19;99675.83;;;19.95;32.37
51999;BME280;73339;50.924;11.598;2024-02-28T01:34:50;99676.99;;;20.06;32.20
51999;BME280;73339;50.924;11.598;2024-02-28T01:37:20;99678.16;;;20.00;32.30
51999;BME280;73339;50.924;11.598;2024-02-28T01:39:51;99674.59;;;19.93;32.42
51999;BME280;73339;50.924;11.598;2024-02-28T01:42:21;99677.45;;;19.96;32.37
51999;BME280;73339;50.924;11.598;2024-02-28T01:44:52;99679.07;;;19.84;32.61
51999;BME280;73339;50.924;11.598;2024-02-28T01:47:22;99674.34;;;19.95;32.40
51999;BME280;73339;50.924;11.598;2024-02-28T01:49:53;99676.56;;;19.89;32.47
51999;BME280;73339;50.924;11.598;2024-02-28T01:52:23;99677.29;;;19.95;32.39
51999;BME280;73339;50.924;11.598;2024-02-28T01:54:54;99675.68;;;19.98;32.31
51999;BME280;73339;50.924;11.598;2024-02-28T01:57:24;99674.39;;;19.92;32.44
51999;BME280;73339;50.924;11.598;2024-02-28T01:59:55;99678.70;;;19.96;32.36
51999;BME280;73339;50.924;11.598;2024-02-28T02:02:25;99678.33;;;19.94;32.39
51999;BME280;73339;50.924;11.598;2024-02-28T02:04:55;99677.52;;;19.91;32.42
51999;BME280;73339;50.924;11.598;2024-02-28T02:07:26;99673.70;;;19.89;32.44
51999;BME280;73339;50.924;11.598;2024-02-28T02:09:56;99674.77;;;19.82;32.63
51999;BME280;73339;50.924;11.598;2024-02-28T02:12:27;99670.08;;;19.89;32.47
51999;BME280;73339;50.924;11.598;2024-02-28T02:14:57;99668.41;;;19.87;32.52
51999;BME280;73339;50.924;11.598;2024-02-28T02:17:27;99671.46;;;19.98;32.30
51999;BME280;73339;50.924;11.598;2024-02-28T02:19:58;99672.77;;;19.92;32.40
51999;BME280;73339;50.924;11.598;2024-02-28T02:22:33;99675.23;;;19.97;32.32
51999;BME280;73339;50.924;11.598;2024-02-28T02:24:59;99676.28;;;19.89;32.48
51999;BME280;73339;50.924;11.598;2024-02-28T02:27:30;99675.05;;;19.96;32.33
51999;BME280;73339;50.924;11.598;2024-02-28T02:30:00;99676.00;;;19.94;32.37
51999;BME280;73339;50.924;11.598;2024-02-28T02:32:30;99673.21;;;19.99;32.21
51999;BME280;73339;50.924;11.598;2024-02-28T02:35:01;99669.35;;;19.99;32.28
51999;BME280;73339;50.924;11.598;2024-02-28T02:37:31;99667.62;;;19.91;32.38
51999;BME280;73339;50.924;11.598;2024-02-28T02:40:02;99671.37;;;20.01;32.22
51999;BME280;73339;50.924;11.598;2024-02-28T02:42:32;99672.51;;;19.90;32.41
51999;BME280;73339;50.924;11.598;2024-02-28T02:45:03;99670.15;;;20.01;32.20
51999;BME280;73339;50.924;11.598;2024-02-28T02:47:33;99670.52;;;19.97;32.27
51999;BME280;73339;50.924;11.598;2024-02-28T02:50:04;99671.53;;;19.95;32.33
51999;BME280;73339;50.924;11.598;2024-02-28T02:52:34;99673.68;;;20.02;32.19
51999;BME280;73339;50.924;11.598;2024-02-28T02:55:06;99675.50;;;20.02;32.19
51999;BME280;73339;50.924;11.598;2024-02-28T02:57:35;99676.05;;;19.97;32.29
51999;BME280;73339;50.924;11.598;2024-02-28T03:00:08;99678.76;;;19.98;32.24
51999;BME280;73339;50.924;11.598;2024-02-28T03:02:36;99679.28;;;19.98;32.26
51999;BME280;73339;50.924;11.598;2024-02-28T03:05:07;99680.00;;;20.00;32.22
51999;BME280;73339;50.924;11.598;2024-02-28T03:07:37;99683.98;;;19.98;32.24
51999;BME280;73339;50.924;11.598;2024-02-28T03:10:07;99684.65;;;20.01;32.20
51999;BME280;73339;50.924;11.598;2024-02-28T03:12:38;99690.80;;;19.95;32.30
51999;BME280;73339;50.924;11.598;2024-02-28T03:15:08;99690.94;;;19.97;32.27
51999;BME280;73339;50.924;11.598;2024-02-28T03:17:39;99692.95;;;19.84;32.50
51999;BME280;73339;50.924;11.598;2024-02-28T03:20:10;99696.04;;;19.97;32.28
51999;BME280;73339;50.924;11.598;2024-02-28T03:22:40;99701.36;;;19.99;32.21
51999;BME280;73339;50.924;11.598;2024-02-28T03:25:10;99706.15;;;19.88;32.42
51999;BME280;73339;50.924;11.598;2024-02-28T03:27:40;99711.56;;;19.92;32.39
51999;BME280;73339;50.924;11.598;2024-02-28T03:30:11;99715.99;;;19.97;32.27
51999;BME280;73339;50.924;11.598;2024-02-28T03:32:41;99720.36;;;19.91;32.38
51999;BME280;73339;50.924;11.598;2024-02-28T03:35:12;99722.18;;;19.84;32.49
51999;BME280;73339;50.924;11.598;2024-02-28T03:37:42;99726.12;;;19.94;32.31
51999;BME280;73339;50.924;11.598;2024-02-28T03:40:13;99728.24;;;19.97;32.27
51999;BME280;73339;50.924;11.598;2024-02-28T03:42:43;99728.38;;;19.87;32.42
51999;BME280;73339;50.924;11.598;2024-02-28T03:45:13;99731.34;;;19.91;32.37
51999;BME280;73339;50.924;11.598;2024-02-28T03:47:44;99736.00;;;19.95;32.32
51999;BME280;73339;50.924;11.598;2024-02-28T03:50:14;99737.19;;;19.93;32.36
51999;BME280;73339;50.924;11.598;2024-02-28T03:52:45;99739.57;;;19.99;32.24
51999;BME280;73339;50.924;11.598;2024-02-28T03:55:15;99738.11;;;19.93;32.33
51999;BME280;73339;50.924;11.598;2024-02-28T03:57:47;99744.07;;;19.92;32.33
51999;BME280;73339;50.924;11.598;2024-02-28T04:00:16;99746.03;;;19.94;32.30
51999;BME280;73339;50.924;11.598;2024-02-28T04:02:46;99748.46;;;19.87;32.42
51999;BME280;73339;50.924;11.598;2024-02-28T04:05:17;99753.20;;;19.90;32.38
51999;BME280;73339;50.924;11.598;2024-02-28T04:07:48;99757.61;;;19.93;32.33
51999;BME280;73339;50.924;11.598;2024-02-28T04:10:18;99759.38;;;19.87;32.42
51999;BME280;73339;50.924;11.598;2024-02-28T04:12:48;99761.16;;;19.89;32.41
51999;BME280;73339;50.924;11.598;2024-02-28T04:15:19;99763.50;;;19.96;32.25
51999;BME280;73339;50.924;11.598;2024-02-28T04:17:49;99766.76;;;19.98;32.22
51999;BME280;73339;50.924;11.598;2024-02-28T04:20:20;99771.82;;;19.99;32.22
51999;BME280;73339;50.924;11.598;2024-02-28T04:22:50;99775.16;;;19.97;32.24
51999;BME280;73339;50.924;11.598;2024-02-28T04:25:21;99776.17;;;19.91;32.34
51999;BME280;73339;50.924;11.598;2024-02-28T04:27:52;99779.80;;;19.98;32.19
51999;BME280;73339;50.924;11.598;2024-02-28T04:30:22;99780.40;;;20.02;32.11
51999;BME280;73339;50.924;11.598;2024-02-28T04:32:53;99779.21;;;19.93;32.31
51999;BME280;73339;50.924;11.598;2024-02-28T04:35:23;99779.37;;;19.84;32.43
51999;BME280;73339;50.924;11.598;2024-02-28T04:37:54;99780.55;;;19.93;32.27
51999;BME280;73339;50.924;11.598;2024-02-28T04:40:24;99781.17;;;19.92;32.32
51999;BME280;73339;50.924;11.598;2024-02-28T04:42:54;99782.92;;;19.95;32.26
51999;BME280;73339;50.924;11.598;2024-02-28T04:45:25;99784.04;;;19.95;32.21
51999;BME280;73339;50.924;11.598;2024-02-28T04:47:55;99782.87;;;19.92;32.27
51999;BME280;73339;50.924;11.598;2024-02-28T04:50:26;99782.46;;;19.89;32.34
51999;BME280;73339;50.924;11.598;2024-02-28T04:52:57;99781.88;;;19.95;32.21
51999;BME280;73339;50.924;11.598;2024-02-28T04:55:27;99784.18;;;19.91;32.31
51999;BME280;73339;50.924;11.598;2024-02-28T04:57:57;99783.84;;;19.94;32.22
51999;BME280;73339;50.924;11.598;2024-02-28T05:00:28;99789.19;;;19.97;32.17
51999;BME280;73339;50.924;11.598;2024-02-28T05:02:58;99791.64;;;19.94;32.19
51999;BME280;73339;50.924;11.598;2024-02-28T05:05:28;99787.91;;;19.77;32.56
51999;BME280;73339;50.924;11.598;2024-02-28T05:07:59;99788.92;;;19.92;32.26
51999;BME280;73339;50.924;11.598;2024-02-28T05:10:29;99790.29;;;19.93;32.26
51999;BME280;73339;50.924;11.598;2024-02-28T05:13:00;99792.67;;;19.94;32.20
51999;BME280;73339;50.924;11.598;2024-02-28T05:15:30;99795.00;;;19.99;32.14
51999;BME280;73339;50.924;11.598;2024-02-28T05:18:01;99799.29;;;19.97;32.16
51999;BME280;73339;50.924;11.598;2024-02-28T05:20:31;99802.90;;;20.01;32.10
51999;BME280;73339;50.924;11.598;2024-02-28T05:23:02;99805.90;;;19.94;32.25
51999;BME280;73339;50.924;11.598;2024-02-28T05:25:32;99810.52;;;19.99;32.14
51999;BME280;73339;50.924;11.598;2024-02-28T05:28:03;99813.04;;;19.99;32.16
51999;BME280;73339;50.924;11.598;2024-02-28T05:30:33;99815.56;;;19.98;32.15
51999;BME280;73339;50.924;11.598;2024-02-28T05:33:04;99820.77;;;19.97;32.18
51999;BME280;73339;50.924;11.598;2024-02-28T05:35:34;99818.80;;;19.97;32.20
51999;BME280;73339;50.924;11.598;2024-02-28T05:38:04;99819.71;;;20.01;32.11
51999;BME280;73339;50.924;11.598;2024-02-28T05:40:35;99821.81;;;19.99;32.15
51999;BME280;73339;50.924;11.598;2024-02-28T05:43:05;99822.97;;;20.00;32.13
51999;BME280;73339;50.924;11.598;2024-02-28T05:45:36;99821.67;;;19.99;32.14
51999;BME280;73339;50.924;11.598;2024-02-28T05:48:06;99822.42;;;20.00;32.12
51999;BME280;73339;50.924;11.598;2024-02-28T05:50:37;99822.56;;;19.92;32.27
51999;BME280;73339;50.924;11.598;2024-02-28T05:53:08;99827.74;;;19.97;32.19
51999;BME280;73339;50.924;11.598;2024-02-28T05:55:37;99829.65;;;19.88;32.35
51999;BME280;73339;50.924;11.598;2024-02-28T05:58:08;99826.99;;;19.74;32.61
51999;BME280;73339;50.924;11.598;2024-02-28T06:00:38;99826.86;;;19.78;32.56
51999;BME280;73339;50.924;11.598;2024-02-28T06:03:09;99833.26;;;19.74;32.65
51999;BME280;73339;50.924;11.598;2024-02-28T06:05:39;99835.66;;;19.80;32.49
51999;BME280;73339;50.924;11.598;2024-02-28T06:08:10;99845.03;;;19.72;32.67
51999;BME280;73339;50.924;11.598;2024-02-28T06:10:40;99851.13;;;19.80;32.48
51999;BME280;73339;50.924;11.598;2024-02-28T06:13:10;99847.39;;;19.75;32.58
51999;BME280;73339;50.924;11.598;2024-02-28T06:15:41;99848.36;;;19.78;32.48
51999;BME280;73339;50.924;11.598;2024-02-28T06:18:12;99850.19;;;19.80;32.48
51999;BME280;73339;50.924;11.598;2024-02-28T06:20:42;99850.79;;;19.87;32.36
51999;BME280;73339;50.924;11.598;2024-02-28T06:23:12;99852.75;;;19.95;32.19
51999;BME280;73339;50.924;11.598;2024-02-28T06:25:43;99855.92;;;19.83;32.43
51999;BME280;73339;50.924;11.598;2024-02-28T06:28:13;99862.38;;;19.80;32.48
51999;BME280;73339;50.924;11.598;2024-02-28T06:30:44;99864.93;;;19.88;32.33
51999;BME280;73339;50.924;11.598;2024-02-28T06:33:14;99868.40;;;19.90;32.29
51999;BME280;73339;50.924;11.598;2024-02-28T06:35:45;99872.60;;;19.92;32.27
51999;BME280;73339;50.924;11.598;2024-02-28T06:38:15;99875.66;;;19.91;32.25
51999;BME280;73339;50.924;11.598;2024-02-28T06:40:46;99883.30;;;19.97;32.15
51999;BME280;73339;50.924;11.598;2024-02-28T06:43:16;99879.07;;;19.42;33.25
51999;BME280;73339;50.924;11.598;2024-02-28T06:45:47;99880.33;;;19.25;33.16
51999;BME280;73339;50.924;11.598;2024-02-28T06:48:17;99880.36;;;19.42;32.64
51999;BME280;73339;50.924;11.598;2024-02-28T06:50:48;99888.24;;;19.44;32.47
51999;BME280;73339;50.924;11.598;2024-02-28T06:53:19;99894.18;;;19.40;32.58
51999;BME280;73339;50.924;11.598;2024-02-28T06:55:49;99902.77;;;19.43;32.42
51999;BME280;73339;50.924;11.598;2024-02-28T06:58:20;99900.85;;;19.69;31.84
51999;BME280;73339;50.924;11.598;2024-02-28T07:00:50;99902.52;;;19.62;31.88
51999;BME280;73339;50.924;11.598;2024-02-28T07:03:20;99900.93;;;19.94;31.53
51999;BME280;73339;50.924;11.598;2024-02-28T07:05:51;99903.83;;;20.13;31.70
51999;BME280;73339;50.924;11.598;2024-02-28T07:08:22;99906.83;;;20.22;31.43
51999;BME280;73339;50.924;11.598;2024-02-28T07:10:52;99907.93;;;20.27;31.61
51999;BME280;73339;50.924;11.598;2024-02-28T07:13:22;99911.56;;;20.26;31.63
51999;BME280;73339;50.924;11.598;2024-02-28T07:15:53;99912.71;;;20.31;31.89
51999;BME280;73339;50.924;11.598;2024-02-28T07:18:24;99916.87;;;20.38;31.86
51999;BME280;73339;50.924;11.598;2024-02-28T07:20:53;99919.38;;;20.41;31.67
51999;BME280;73339;50.924;11.598;2024-02-28T07:23:24;99919.85;;;20.40;31.65
51999;BME280;73339;50.924;11.598;2024-02-28T07:25:54;99918.92;;;20.41;31.62
51999;BME280;73339;50.924;11.598;2024-02-28T07:28:25;99916.79;;;20.42;32.17
51999;BME280;73339;50.924;11.598;2024-02-28T07:30:55;99915.79;;;20.51;32.19
51999;BME280;73339;50.924;11.598;2024-02-28T07:33:26;99915.06;;;20.58;32.02
51999;BME280;73339;50.924;11.598;2024-02-28T07:35:56;99915.81;;;20.50;32.30
51999;BME280;73339;50.924;11.598;2024-02-28T07:38:27;99915.10;;;20.55;32.30
51999;BME280;73339;50.924;11.598;2024-02-28T07:40:57;99915.21;;;20.59;32.28
51999;BME280;73339;50.924;11.598;2024-02-28T07:43:27;99919.10;;;20.54;32.52
51999;BME280;73339;50.924;11.598;2024-02-28T07:45:57;99919.97;;;20.60;32.50
51999;BME280;73339;50.924;11.598;2024-02-28T07:48:28;99920.46;;;20.48;32.79
51999;BME280;73339;50.924;11.598;2024-02-28T07:50:58;99922.84;;;20.53;32.77
51999;BME280;73339;50.924;11.598;2024-02-28T07:53:29;99918.83;;;20.29;33.17
51999;BME280;73339;50.924;11.598;2024-02-28T07:55:59;99912.41;;;19.99;32.93
51999;BME280;73339;50.924;11.598;2024-02-28T07:58:30;99914.53;;;19.86;32.71
51999;BME280;73339;50.924;11.598;2024-02-28T08:01:00;99916.10;;;19.84;32.28
51999;BME280;73339;50.924;11.598;2024-02-28T08:03:30;99916.10;;;19.91;31.82
51999;BME280;73339;50.924;11.598;2024-02-28T08:06:01;99915.79;;;19.97;31.70
51999;BME280;73339;50.924;11.598;2024-02-28T08:08:31;99912.83;;;20.29;31.14
51999;BME280;73339;50.924;11.598;2024-02-28T08:11:02;99910.22;;;20.19;31.42
51999;BME280;73339;50.924;11.598;2024-02-28T08:13:32;99910.41;;;20.42;31.13
51999;BME280;73339;50.924;11.598;2024-02-28T08:16:03;99915.23;;;20.64;30.73
51999;BME280;73339;50.924;11.598;2024-02-28T08:18:33;99913.91;;;20.58;30.88
51999;BME280;73339;50.924;11.598;2024-02-28T08:21:04;99915.63;;;20.67;30.90
51999;BME280;73339;50.924;11.598;2024-02-28T08:23:34;99912.18;;;20.21;31.33
51999;BME280;73339;50.924;11.598;2024-02-28T08:26:04;99912.65;;;20.04;31.22
51999;BME280;73339;50.924;11.598;2024-02-28T08:28:35;99910.77;;;20.15;30.88
51999;BME280;73339;50.924;11.598;2024-02-28T08:31:05;99918.83;;;20.65;30.03
51999;BME280;73339;50.924;11.598;2024-02-28T08:33:35;99921.31;;;20.68;30.01
51999;BME280;73339;50.924;11.598;2024-02-28T08:36:06;99921.91;;;20.72;30.01
51999;BME280;73339;50.924;11.598;2024-02-28T08:38:36;99921.58;;;20.77;30.00
51999;BME280;73339;50.924;11.598;2024-02-28T08:41:07;99921.15;;;20.79;30.01
51999;BME280;73339;50.924;11.598;2024-02-28T08:43:38;99921.55;;;20.75;30.46
51999;BME280;73339;50.924;11.598;2024-02-28T08:46:08;99921.73;;;20.80;30.43
51999;BME280;73339;50.924;11.598;2024-02-28T08:48:38;99922.12;;;20.95;30.61
51999;BME280;73339;50.924;11.598;2024-02-28T08:51:08;99927.27;;;20.95;30.60
51999;BME280;73339;50.924;11.598;2024-02-28T08:53:39;99925.30;;;20.96;30.54
51999;BME280;73339;50.924;11.598;2024-02-28T08:56:09;99926.32;;;21.01;30.63
51999;BME280;73339;50.924;11.598;2024-02-28T08:58:39;99927.86;;;21.02;30.60
51999;BME280;73339;50.924;11.598;2024-02-28T09:01:14;99934.88;;;20.86;31.08
51999;BME280;73339;50.924;11.598;2024-02-28T09:03:40;99942.49;;;21.06;30.88
51999;BME280;73339;50.924;11.598;2024-02-28T09:06:11;99944.56;;;21.08;30.81
51999;BME280;73339;50.924;11.598;2024-02-28T09:08:41;99942.73;;;21.12;30.83
51999;BME280;73339;50.924;11.598;2024-02-28T09:11:12;99943.48;;;21.10;30.93
51999;BME280;73339;50.924;11.598;2024-02-28T09:13:42;99944.14;;;21.05;31.06
51999;BME280;73339;50.924;11.598;2024-02-28T09:16:13;99945.15;;;21.09;31.08
51999;BME280;73339;50.924;11.598;2024-02-28T09:18:43;99943.36;;;21.00;31.22
51999;BME280;73339;50.924;11.598;2024-02-28T09:21:14;99945.12;;;21.03;31.27
51999;BME280;73339;50.924;11.598;2024-02-28T09:23:44;99945.94;;;21.00;31.34
51999;BME280;73339;50.924;11.598;2024-02-28T09:26:14;99944.03;;;21.04;31.38
51999;BME280;73339;50.924;11.598;2024-02-28T09:28:45;99946.39;;;20.93;31.65
51999;BME280;73339;50.924;11.598;2024-02-28T09:31:15;99947.14;;;20.90;31.88
51999;BME280;73339;50.924;11.598;2024-02-28T09:33:46;99953.03;;;21.10;31.51
51999;BME280;73339;50.924;11.598;2024-02-28T09:36:16;99953.12;;;21.12;31.46
51999;BME280;73339;50.924;11.598;2024-02-28T09:38:47;99953.98;;;21.08;31.47
51999;BME280;73339;50.924;11.598;2024-02-28T09:41:17;99952.48;;;21.22;31.28
51999;BME280;73339;50.924;11.598;2024-02-28T09:43:48;99951.09;;;21.13;31.48
51999;BME280;73339;50.924;11.598;2024-02-28T09:46:18;99955.18;;;21.26;31.20
51999;BME280;73339;50.924;11.598;2024-02-28T09:48:49;99955.78;;;21.24;31.23
51999;BME280;73339;50.924;11.598;2024-02-28T09:51:21;99962.04;;;21.31;31.08
51999;BME280;73339;50.924;11.598;2024-02-28T09:53:50;99959.21;;;21.24;31.19
51999;BME280;73339;50.924;11.598;2024-02-28T09:56:21;99961.93;;;21.22;31.19
51999;BME280;73339;50.924;11.598;2024-02-28T09:58:51;99962.24;;;21.20;31.20
51999;BME280;73339;50.924;11.598;2024-02-28T10:01:21;99965.77;;;21.25;31.13
51999;BME280;73339;50.924;11.598;2024-02-28T10:03:52;99961.93;;;21.23;31.14
51999;BME280;73339;50.924;11.598;2024-02-28T10:06:22;99964.11;;;21.23;31.13
51999;BME280;73339;50.924;11.598;2024-02-28T10:08:52;99964.91;;;21.21;31.14
51999;BME280;73339;50.924;11.598;2024-02-28T10:11:24;99971.16;;;21.21;31.14
51999;BME280;73339;50.924;11.598;2024-02-28T10:13:53;99975.14;;;21.21;31.12
51999;BME280;73339;50.924;11.598;2024-02-28T10:16:23;99978.01;;;21.18;31.17
51999;BME280;73339;50.924;11.598;2024-02-28T10:18:54;99981.19;;;21.21;31.13
51999;BME280;73339;50.924;11.598;2024-02-28T10:21:24;99978.61;;;21.19;31.14
51999;BME280;73339;50.924;11.598;2024-02-28T10:23:58;99982.20;;;21.04;31.38
51999;BME280;73339;50.924;11.598;2024-02-28T10:26:25;99983.41;;;21.12;31.24
51999;BME280;73339;50.924;11.598;2024-02-28T10:28:55;99989.38;;;21.13;31.17
51999;BME280;73339;50.924;11.598;2024-02-28T10:31:25;99992.71;;;21.06;31.29
51999;BME280;73339;50.924;11.598;2024-02-28T10:33:56;99991.84;;;20.95;31.47
51999;BME280;73339;50.924;11.598;2024-02-28T10:36:27;99991.93;;;21.08;31.27
51999;BME280;73339;50.924;11.598;2024-02-28T10:38:57;99994.84;;;21.04;31.28
51999;BME280;73339;50.924;11.598;2024-02-28T10:41:28;99996.51;;;21.03;31.31
51999;BME280;73339;50.924;11.598;2024-02-28T10:43:58;99998.27;;;21.05;31.22
51999;BME280;73339;50.924;11.598;2024-02-28T10:46:28;99994.28;;;21.00;31.32
51999;BME280;73339;50.924;11.598;2024-02-28T10:48:58;99994.09;;;21.07;31.19
51999;BME280;73339;50.924;11.598;2024-02-28T10:51:30;99995.32;;;21.08;31.19
51999;BME280;73339;50.924;11.598;2024-02-28T10:54:07;99994.14;;;21.09;31.19
51999;BME280;73339;50.924;11.598;2024-02-28T10:56:30;99995.73;;;21.15;31.04
51999;BME280;73339;50.924;11.598;2024-02-28T10:59:01;99999.78;;;21.15;31.04
51999;BME280;73339;50.924;11.598;2024-02-28T11:01:30;100000.15;;;21.11;31.10
51999;BME280;73339;50.924;11.598;2024-02-28T11:04:02;100000.87;;;21.14;31.10
51999;BME280;73339;50.924;11.598;2024-02-28T11:06:32;99996.44;;;21.12;31.07
51999;BME280;73339;50.924;11.598;2024-02-28T11:09:03;99993.75;;;21.14;31.03
51999;BME280;73339;50.924;11.598;2024-02-28T11:11:32;99991.61;;;21.11;31.02
51999;BME280;73339;50.924;11.598;2024-02-28T11:14:02;99990.44;;;21.13;30.90
51999;BME280;73339;50.924;11.598;2024-02-28T11:16:33;99993.32;;;21.16;30.91
51999;BME280;73339;50.924;11.598;2024-02-28T11:19:03;99993.20;;;21.14;30.90
51999;BME280;73339;50.924;11.598;2024-02-28T11:21:35;99995.82;;;21.12;30.94
51999;BME280;73339;50.924;11.598;2024-02-28T11:24:05;99996.23;;;21.15;30.89
51999;BME280;73339;50.924;11.598;2024-02-28T11:26:35;100000.29;;;21.09;30.96
51999;BME280;73339;50.924;11.598;2024-02-28T11:29:07;100000.19;;;20.44;31.25
51999;BME280;73339;50.924;11.598;2024-02-28T11:31:35;99998.40;;;20.34;31.03
51999;BME280;73339;50.924;11.598;2024-02-28T11:34:06;99996.68;;;20.15;30.85
51999;BME280;73339;50.924;11.598;2024-02-28T11:36:36;99995.13;;;20.12;30.76
51999;BME280;73339;50.924;11.598;2024-02-28T11:39:07;99997.58;;;20.32;30.36
51999;BME280;73339;50.924;11.598;2024-02-28T11:41:37;99994.14;;;20.54;30.03
51999;BME280;73339;50.924;11.598;2024-02-28T11:44:07;99992.07;;;20.84;29.59
51999;BME280;73339;50.924;11.598;2024-02-28T11:46:38;99990.38;;;20.92;29.51
51999;BME280;73339;50.924;11.598;2024-02-28T11:49:08;99991.14;;;21.03;29.41
51999;BME280;73339;50.924;11.598;2024-02-28T11:51:40;99993.15;;;20.98;29.54
51999;BME280;73339;50.924;11.598;2024-02-28T11:54:09;99994.79;;;21.14;29.32
51999;BME280;73339;50.924;11.598;2024-02-28T11:56:40;99994.98;;;21.14;29.38
51999;BME280;73339;50.924;11.598;2024-02-28T11:59:11;99998.59;;;21.12;29.49
51999;BME280;73339;50.924;11.598;2024-02-28T12:01:41;99996.25;;;21.20;29.37
51999;BME280;73339;50.924;11.598;2024-02-28T12:04:11;99996.76;;;21.14;30.57
51999;BME280;73339;50.924;11.598;2024-02-28T12:06:41;99994.49;;;21.22;30.79
51999;BME280;73339;50.924;11.598;2024-02-28T12:09:12;99991.20;;;21.28;30.93
51999;BME280;73339;50.924;11.598;2024-02-28T12:11:43;99990.13;;;21.28;31.03
51999;BME280;73339;50.924;11.598;2024-02-28T12:14:13;99989.52;;;21.34;31.20
51999;BME280;73339;50.924;11.598;2024-02-28T12:16:43;99986.15;;;21.33;31.63
51999;BME280;73339;50.924;11.598;2024-02-28T12:19:13;99984.80;;;21.38;31.60
51999;BME280;73339;50.924;11.598;2024-02-28T12:21:44;99983.82;;;21.20;32.12
51999;BME280;73339;50.924;11.598;2024-02-28T12:24:14;99983.38;;;21.28;31.51
51999;BME280;73339;50.924;11.598;2024-02-28T12:26:45;99979.72;;;21.16;31.69
51999;BME280;73339;50.924;11.598;2024-02-28T12:29:15;99979.05;;;21.21;31.82
51999;BME280;73339;50.924;11.598;2024-02-28T12:31:46;99977.47;;;21.29;31.73
51999;BME280;73339;50.924;11.598;2024-02-28T12:34:16;99974.27;;;21.31;32.28
51999;BME280;73339;50.924;11.598;2024-02-28T12:36:46;99970.49;;;21.28;32.50
51999;BME280;73339;50.924;11.598;2024-02-28T12:39:17;99968.25;;;21.29;32.79
51999;BME280;73339;50.924;11.598;2024-02-28T12:41:47;99967.57;;;21.28;33.06
51999;BME280;73339;50.924;11.598;2024-02-28T12:44:18;99969.70;;;21.45;32.88
51999;BME280;73339;50.924;11.598;2024-02-28T12:46:48;99966.22;;;21.40;33.16
51999;BME280;73339;50.924;11.598;2024-02-28T12:49:19;99965.49;;;21.44;33.43
51999;BME280;73339;50.924;11.598;2024-02-28T12:51:49;99961.53;;;21.45;33.53
51999;BME280;73339;50.924;11.598;2024-02-28T12:54:21;99964.90;;;21.39;33.78
51999;BME280;73339;50.924;11.598;2024-02-28T12:56:50;99966.60;;;21.46;33.59
51999;BME280;73339;50.924;11.598;2024-02-28T12:59:21;99967.36;;;21.57;33.49
51999;BME280;73339;50.924;11.598;2024-02-28T13:01:51;99963.21;;;21.51;33.89
51999;BME280;73339;50.924;11.598;2024-02-28T13:04:21;99966.14;;;21.57;33.88
51999;BME280;73339;50.924;11.598;2024-02-28T13:06:52;99963.61;;;21.25;32.95